sensor_id;sensor_type;location;lat;lon;timestamp;P1;durP1;ratioP1;P2;durP2;ratioP2
21825;SDS011;11075;47.944;11.776;2022-12-16T00:00:04;55.10;;;18.83;;
21825;SDS011;11075;47.944;11.776;2022-12-16T00:02:34;59.93;;;19.03;;
21825;SDS011;11075;47.944;11.776;2022-12-16T00:05:02;57.57;;;19.37;;
21825;SDS011;11075;47.944;11.776;2022-12-16T00:07:29;58.00;;;19.50;;
21825;SDS011;11075;47.944;11.776;2022-12-16T00:09:56;56.00;;;19.93;;
21825;SDS011;11075;47.944;11.776;2022-12-16T00:12:23;50.87;;;18.00;;
21825;SDS011;11075;47.944;11.776;2022-12-16T00:14:50;50.27;;;18.67;;
21825;SDS011;11075;47.944;11.776;2022-12-16T00:17:20;65.03;;;18.53;;
21825;SDS011;11075;47.944;11.776;2022-12-16T00:19:47;51.97;;;18.60;;
21825;SDS011;11075;47.944;11.776;2022-12-16T00:22:15;57.13;;;18.97;;
21825;SDS011;11075;47.944;11.776;2022-12-16T00:24:42;53.53;;;18.53;;
21825;SDS011;11075;47.944;11.776;2022-12-16T00:27:09;52.47;;;17.43;;
21825;SDS011;11075;47.944;11.776;2022-12-16T00:29:37;53.07;;;18.47;;
21825;SDS011;11075;47.944;11.776;2022-12-16T00:32:04;50.60;;;17.00;;
21825;SDS011;11075;47.944;11.776;2022-12-16T00:34:31;51.03;;;17.07;;
21825;SDS011;11075;47.944;11.776;2022-12-16T00:36:59;49.27;;;16.87;;
21825;SDS011;11075;47.944;11.776;2022-12-16T00:39:25;51.13;;;16.70;;
21825;SDS011;11075;47.944;11.776;2022-12-16T00:41:52;47.37;;;17.43;;
21825;SDS011;11075;47.944;11.776;2022-12-16T00:44:20;54.47;;;17.93;;
21825;SDS011;11075;47.944;11.776;2022-12-16T00:46:47;50.30;;;18.10;;
21825;SDS011;11075;47.944;11.776;2022-12-16T00:49:14;44.27;;;17.03;;
21825;SDS011;11075;47.944;11.776;2022-12-16T00:51:41;42.47;;;16.80;;
21825;SDS011;11075;47.944;11.776;2022-12-16T00:54:08;51.67;;;16.27;;
21825;SDS011;11075;47.944;11.776;2022-12-16T00:56:36;44.97;;;16.80;;
21825;SDS011;11075;47.944;11.776;2022-12-16T00:59:03;44.37;;;17.07;;
21825;SDS011;11075;47.944;11.776;2022-12-16T01:01:30;45.07;;;16.23;;
21825;SDS011;11075;47.944;11.776;2022-12-16T01:03:57;40.23;;;15.60;;
21825;SDS011;11075;47.944;11.776;2022-12-16T01:06:23;34.67;;;14.53;;
21825;SDS011;11075;47.944;11.776;2022-12-16T01:08:51;44.67;;;15.73;;
21825;SDS011;11075;47.944;11.776;2022-12-16T01:11:21;41.70;;;14.93;;
21825;SDS011;11075;47.944;11.776;2022-12-16T01:13:51;46.57;;;16.73;;
21825;SDS011;11075;47.944;11.776;2022-12-16T01:16:21;40.10;;;15.40;;
21825;SDS011;11075;47.944;11.776;2022-12-16T01:18:48;43.20;;;14.77;;
21825;SDS011;11075;47.944;11.776;2022-12-16T01:21:15;49.57;;;15.83;;
21825;SDS011;11075;47.944;11.776;2022-12-16T01:23:42;38.13;;;14.90;;
21825;SDS011;11075;47.944;11.776;2022-12-16T01:26:09;37.43;;;14.13;;
21825;SDS011;11075;47.944;11.776;2022-12-16T01:28:42;40.63;;;14.83;;
21825;SDS011;11075;47.944;11.776;2022-12-16T01:31:09;35.30;;;14.13;;
21825;SDS011;11075;47.944;11.776;2022-12-16T01:33:37;42.00;;;15.17;;
21825;SDS011;11075;47.944;11.776;2022-12-16T01:36:05;38.30;;;15.50;;
21825;SDS011;11075;47.944;11.776;2022-12-16T01:38:34;34.73;;;14.23;;
21825;SDS011;11075;47.944;11.776;2022-12-16T01:41:02;31.30;;;13.87;;
21825;SDS011;11075;47.944;11.776;2022-12-16T01:43:31;40.37;;;15.60;;
21825;SDS011;11075;47.944;11.776;2022-12-16T01:46:11;40.63;;;15.10;;
21825;SDS011;11075;47.944;11.776;2022-12-16T01:48:57;36.93;;;13.40;;
21825;SDS011;11075;47.944;11.776;2022-12-16T01:51:37;33.03;;;13.03;;
21825;SDS011;11075;47.944;11.776;2022-12-16T01:54:17;34.00;;;12.57;;
21825;SDS011;11075;47.944;11.776;2022-12-16T01:56:50;31.73;;;12.23;;
21825;SDS011;11075;47.944;11.776;2022-12-16T01:59:21;36.07;;;12.43;;
21825;SDS011;11075;47.944;11.776;2022-12-16T02:01:51;35.27;;;12.80;;
21825;SDS011;11075;47.944;11.776;2022-12-16T02:04:19;33.70;;;13.37;;
21825;SDS011;11075;47.944;11.776;2022-12-16T02:06:46;31.33;;;12.90;;
21825;SDS011;11075;47.944;11.776;2022-12-16T02:09:13;34.23;;;12.93;;
21825;SDS011;11075;47.944;11.776;2022-12-16T02:14:41;28.10;;;12.17;;
21825;SDS011;11075;47.944;11.776;2022-12-16T02:17:27;26.53;;;11.23;;
21825;SDS011;11075;47.944;11.776;2022-12-16T02:20:24;25.90;;;11.20;;
21825;SDS011;11075;47.944;11.776;2022-12-16T02:40:06;28.93;;;11.20;;
21825;SDS011;11075;47.944;11.776;2022-12-16T02:42:46;24.30;;;11.00;;
21825;SDS011;11075;47.944;11.776;2022-12-16T02:45:21;22.53;;;10.83;;
21825;SDS011;11075;47.944;11.776;2022-12-16T02:47:54;27.03;;;11.33;;
21825;SDS011;11075;47.944;11.776;2022-12-16T02:50:42;26.57;;;11.10;;
21825;SDS011;11075;47.944;11.776;2022-12-16T02:53:12;26.53;;;10.97;;
21825;SDS011;11075;47.944;11.776;2022-12-16T02:55:58;27.10;;;10.37;;
21825;SDS011;11075;47.944;11.776;2022-12-16T02:58:30;23.07;;;10.43;;
21825;SDS011;11075;47.944;11.776;2022-12-16T03:01:13;22.87;;;9.90;;
21825;SDS011;11075;47.944;11.776;2022-12-16T03:04:02;26.10;;;11.07;;
21825;SDS011;11075;47.944;11.776;2022-12-16T03:06:35;23.83;;;10.77;;
21825;SDS011;11075;47.944;11.776;2022-12-16T03:09:05;23.93;;;10.50;;
21825;SDS011;11075;47.944;11.776;2022-12-16T03:11:34;23.27;;;9.63;;
21825;SDS011;11075;47.944;11.776;2022-12-16T03:14:06;25.77;;;10.80;;
21825;SDS011;11075;47.944;11.776;2022-12-16T03:16:36;26.83;;;10.90;;
21825;SDS011;11075;47.944;11.776;2022-12-16T03:19:04;31.47;;;11.50;;
21825;SDS011;11075;47.944;11.776;2022-12-16T03:21:36;27.70;;;10.73;;
21825;SDS011;11075;47.944;11.776;2022-12-16T03:24:09;26.67;;;11.37;;
21825;SDS011;11075;47.944;11.776;2022-12-16T03:29:23;28.80;;;11.40;;
21825;SDS011;11075;47.944;11.776;2022-12-16T03:33:01;23.80;;;11.20;;
21825;SDS011;11075;47.944;11.776;2022-12-16T03:37:31;27.00;;;11.43;;
21825;SDS011;11075;47.944;11.776;2022-12-16T03:40:03;27.70;;;12.27;;
21825;SDS011;11075;47.944;11.776;2022-12-16T03:42:33;30.00;;;12.30;;
21825;SDS011;11075;47.944;11.776;2022-12-16T03:45:02;27.93;;;12.77;;
21825;SDS011;11075;47.944;11.776;2022-12-16T03:47:33;32.77;;;12.93;;
21825;SDS011;11075;47.944;11.776;2022-12-16T03:50:00;31.20;;;12.10;;
21825;SDS011;11075;47.944;11.776;2022-12-16T03:52:27;28.60;;;12.03;;
21825;SDS011;11075;47.944;11.776;2022-12-16T03:54:54;30.93;;;12.40;;
21825;SDS011;11075;47.944;11.776;2022-12-16T03:57:21;31.80;;;12.20;;
21825;SDS011;11075;47.944;11.776;2022-12-16T03:59:47;27.40;;;11.50;;
21825;SDS011;11075;47.944;11.776;2022-12-16T04:02:14;30.73;;;12.67;;
21825;SDS011;11075;47.944;11.776;2022-12-16T04:04:41;30.00;;;12.70;;
21825;SDS011;11075;47.944;11.776;2022-12-16T04:07:09;27.07;;;11.67;;
21825;SDS011;11075;47.944;11.776;2022-12-16T04:09:50;27.20;;;12.17;;
21825;SDS011;11075;47.944;11.776;2022-12-16T04:12:19;27.57;;;12.23;;
21825;SDS011;11075;47.944;11.776;2022-12-16T04:15:05;25.40;;;11.40;;
21825;SDS011;11075;47.944;11.776;2022-12-16T04:17:51;24.53;;;11.13;;
21825;SDS011;11075;47.944;11.776;2022-12-16T04:20:48;29.30;;;11.80;;
21825;SDS011;11075;47.944;11.776;2022-12-16T04:23:48;28.87;;;11.23;;
21825;SDS011;11075;47.944;11.776;2022-12-16T04:26:36;30.83;;;11.73;;
21825;SDS011;11075;47.944;11.776;2022-12-16T04:29:21;30.23;;;11.97;;
21825;SDS011;11075;47.944;11.776;2022-12-16T04:31:49;25.80;;;10.67;;
21825;SDS011;11075;47.944;11.776;2022-12-16T04:34:17;31.13;;;12.13;;
21825;SDS011;11075;47.944;11.776;2022-12-16T04:36:52;35.63;;;12.80;;
21825;SDS011;11075;47.944;11.776;2022-12-16T04:39:39;31.97;;;12.03;;
21825;SDS011;11075;47.944;11.776;2022-12-16T04:42:24;28.63;;;12.03;;
21825;SDS011;11075;47.944;11.776;2022-12-16T04:45:10;30.20;;;13.50;;
21825;SDS011;11075;47.944;11.776;2022-12-16T04:47:55;25.27;;;11.37;;
21825;SDS011;11075;47.944;11.776;2022-12-16T04:50:40;28.77;;;11.67;;
21825;SDS011;11075;47.944;11.776;2022-12-16T04:53:26;28.77;;;11.83;;
21825;SDS011;11075;47.944;11.776;2022-12-16T04:56:11;30.23;;;12.40;;
21825;SDS011;11075;47.944;11.776;2022-12-16T04:58:57;27.10;;;12.83;;
21825;SDS011;11075;47.944;11.776;2022-12-16T05:01:43;34.97;;;13.10;;
21825;SDS011;11075;47.944;11.776;2022-12-16T05:04:29;29.13;;;12.73;;
21825;SDS011;11075;47.944;11.776;2022-12-16T05:07:14;29.03;;;12.40;;
21825;SDS011;11075;47.944;11.776;2022-12-16T05:10:03;28.60;;;11.90;;
21825;SDS011;11075;47.944;11.776;2022-12-16T05:12:51;34.07;;;13.13;;
21825;SDS011;11075;47.944;11.776;2022-12-16T05:15:39;27.87;;;11.90;;
21825;SDS011;11075;47.944;11.776;2022-12-16T05:18:41;30.87;;;13.03;;
21825;SDS011;11075;47.944;11.776;2022-12-16T05:21:26;37.13;;;13.40;;
21825;SDS011;11075;47.944;11.776;2022-12-16T05:24:11;38.90;;;14.47;;
21825;SDS011;11075;47.944;11.776;2022-12-16T05:26:57;41.30;;;14.63;;
21825;SDS011;11075;47.944;11.776;2022-12-16T05:29:43;34.57;;;14.43;;
21825;SDS011;11075;47.944;11.776;2022-12-16T05:32:28;43.63;;;17.23;;
21825;SDS011;11075;47.944;11.776;2022-12-16T05:35:14;55.90;;;21.43;;
21825;SDS011;11075;47.944;11.776;2022-12-16T05:37:59;54.37;;;22.10;;
21825;SDS011;11075;47.944;11.776;2022-12-16T05:40:45;53.30;;;21.87;;
21825;SDS011;11075;47.944;11.776;2022-12-16T05:43:30;49.00;;;20.70;;
21825;SDS011;11075;47.944;11.776;2022-12-16T05:46:15;52.13;;;20.30;;
21825;SDS011;11075;47.944;11.776;2022-12-16T05:49:01;49.77;;;19.93;;
21825;SDS011;11075;47.944;11.776;2022-12-16T05:51:46;46.57;;;19.37;;
21825;SDS011;11075;47.944;11.776;2022-12-16T05:54:40;51.70;;;20.87;;
21825;SDS011;11075;47.944;11.776;2022-12-16T05:57:47;50.67;;;21.43;;
21825;SDS011;11075;47.944;11.776;2022-12-16T06:00:34;45.43;;;19.60;;
21825;SDS011;11075;47.944;11.776;2022-12-16T06:03:20;49.87;;;19.80;;
21825;SDS011;11075;47.944;11.776;2022-12-16T06:06:07;46.80;;;19.90;;
21825;SDS011;11075;47.944;11.776;2022-12-16T06:08:52;46.73;;;19.67;;
21825;SDS011;11075;47.944;11.776;2022-12-16T06:11:37;44.53;;;19.10;;
21825;SDS011;11075;47.944;11.776;2022-12-16T06:14:23;40.57;;;18.10;;
21825;SDS011;11075;47.944;11.776;2022-12-16T06:17:09;43.00;;;18.93;;
21825;SDS011;11075;47.944;11.776;2022-12-16T06:19:54;42.93;;;18.10;;
21825;SDS011;11075;47.944;11.776;2022-12-16T06:22:40;43.20;;;18.67;;
21825;SDS011;11075;47.944;11.776;2022-12-16T06:25:26;42.90;;;19.00;;
21825;SDS011;11075;47.944;11.776;2022-12-16T06:28:11;39.23;;;18.87;;
21825;SDS011;11075;47.944;11.776;2022-12-16T06:30:56;40.80;;;18.57;;
21825;SDS011;11075;47.944;11.776;2022-12-16T06:33:41;44.80;;;19.03;;
21825;SDS011;11075;47.944;11.776;2022-12-16T06:36:27;38.20;;;16.13;;
21825;SDS011;11075;47.944;11.776;2022-12-16T06:39:12;41.00;;;17.47;;
21825;SDS011;11075;47.944;11.776;2022-12-16T06:41:58;35.47;;;18.30;;
21825;SDS011;11075;47.944;11.776;2022-12-16T06:44:44;38.43;;;17.63;;
21825;SDS011;11075;47.944;11.776;2022-12-16T06:47:29;35.43;;;16.50;;
21825;SDS011;11075;47.944;11.776;2022-12-16T06:50:14;33.53;;;15.90;;
21825;SDS011;11075;47.944;11.776;2022-12-16T06:52:59;34.73;;;16.57;;
21825;SDS011;11075;47.944;11.776;2022-12-16T06:55:45;36.60;;;17.10;;
21825;SDS011;11075;47.944;11.776;2022-12-16T06:58:30;35.37;;;16.83;;
21825;SDS011;11075;47.944;11.776;2022-12-16T07:01:15;33.77;;;15.77;;
21825;SDS011;11075;47.944;11.776;2022-12-16T07:04:01;37.13;;;16.73;;
21825;SDS011;11075;47.944;11.776;2022-12-16T07:06:47;37.77;;;16.53;;
21825;SDS011;11075;47.944;11.776;2022-12-16T07:09:32;34.50;;;15.43;;
21825;SDS011;11075;47.944;11.776;2022-12-16T07:12:19;38.63;;;17.90;;
21825;SDS011;11075;47.944;11.776;2022-12-16T07:15:04;36.10;;;16.40;;
21825;SDS011;11075;47.944;11.776;2022-12-16T07:17:50;30.13;;;15.77;;
21825;SDS011;11075;47.944;11.776;2022-12-16T07:20:36;31.93;;;15.60;;
21825;SDS011;11075;47.944;11.776;2022-12-16T07:23:21;29.77;;;15.17;;
21825;SDS011;11075;47.944;11.776;2022-12-16T07:26:06;35.63;;;16.50;;
21825;SDS011;11075;47.944;11.776;2022-12-16T07:28:52;37.67;;;16.60;;
21825;SDS011;11075;47.944;11.776;2022-12-16T07:31:37;31.83;;;15.50;;
21825;SDS011;11075;47.944;11.776;2022-12-16T07:34:22;33.43;;;17.80;;
21825;SDS011;11075;47.944;11.776;2022-12-16T07:37:15;33.83;;;17.00;;
21825;SDS011;11075;47.944;11.776;2022-12-16T07:40:00;32.60;;;17.27;;
21825;SDS011;11075;47.944;11.776;2022-12-16T07:42:45;32.20;;;16.07;;
21825;SDS011;11075;47.944;11.776;2022-12-16T07:45:31;30.17;;;15.27;;
21825;SDS011;11075;47.944;11.776;2022-12-16T07:48:17;32.37;;;15.27;;
21825;SDS011;11075;47.944;11.776;2022-12-16T07:51:03;32.80;;;15.07;;
21825;SDS011;11075;47.944;11.776;2022-12-16T07:53:49;30.77;;;15.57;;
21825;SDS011;11075;47.944;11.776;2022-12-16T07:56:34;30.13;;;15.97;;
21825;SDS011;11075;47.944;11.776;2022-12-16T07:59:19;32.80;;;16.23;;
21825;SDS011;11075;47.944;11.776;2022-12-16T08:02:22;30.23;;;15.90;;
21825;SDS011;11075;47.944;11.776;2022-12-16T08:05:07;28.30;;;15.00;;
21825;SDS011;11075;47.944;11.776;2022-12-16T08:07:53;31.87;;;15.87;;
21825;SDS011;11075;47.944;11.776;2022-12-16T08:10:38;31.07;;;15.57;;
21825;SDS011;11075;47.944;11.776;2022-12-16T08:13:23;35.00;;;17.27;;
21825;SDS011;11075;47.944;11.776;2022-12-16T08:16:08;33.60;;;16.87;;
21825;SDS011;11075;47.944;11.776;2022-12-16T08:18:54;31.37;;;15.33;;
21825;SDS011;11075;47.944;11.776;2022-12-16T08:21:40;31.37;;;15.77;;
21825;SDS011;11075;47.944;11.776;2022-12-16T08:24:26;34.47;;;16.63;;
21825;SDS011;11075;47.944;11.776;2022-12-16T08:27:19;32.03;;;16.27;;
21825;SDS011;11075;47.944;11.776;2022-12-16T08:30:05;30.87;;;14.97;;
21825;SDS011;11075;47.944;11.776;2022-12-16T08:32:51;32.60;;;16.40;;
21825;SDS011;11075;47.944;11.776;2022-12-16T08:35:44;34.00;;;16.97;;
21825;SDS011;11075;47.944;11.776;2022-12-16T08:38:31;30.40;;;17.10;;
21825;SDS011;11075;47.944;11.776;2022-12-16T08:41:16;31.67;;;16.10;;
21825;SDS011;11075;47.944;11.776;2022-12-16T08:44:02;35.43;;;17.13;;
21825;SDS011;11075;47.944;11.776;2022-12-16T08:46:47;35.57;;;17.23;;
21825;SDS011;11075;47.944;11.776;2022-12-16T08:49:32;40.83;;;19.17;;
21825;SDS011;11075;47.944;11.776;2022-12-16T08:52:25;39.47;;;19.40;;
21825;SDS011;11075;47.944;11.776;2022-12-16T08:55:12;42.87;;;20.90;;
21825;SDS011;11075;47.944;11.776;2022-12-16T08:57:57;41.87;;;21.10;;
21825;SDS011;11075;47.944;11.776;2022-12-16T09:00:43;35.47;;;18.10;;
21825;SDS011;11075;47.944;11.776;2022-12-16T09:03:34;38.17;;;18.57;;
21825;SDS011;11075;47.944;11.776;2022-12-16T09:06:21;35.57;;;18.23;;
21825;SDS011;11075;47.944;11.776;2022-12-16T09:09:07;33.07;;;17.13;;
21825;SDS011;11075;47.944;11.776;2022-12-16T09:11:54;35.03;;;18.23;;
21825;SDS011;11075;47.944;11.776;2022-12-16T09:14:40;36.23;;;18.40;;
21825;SDS011;11075;47.944;11.776;2022-12-16T09:17:26;36.20;;;18.27;;
21825;SDS011;11075;47.944;11.776;2022-12-16T09:20:12;35.57;;;18.63;;
21825;SDS011;11075;47.944;11.776;2022-12-16T09:23:00;37.33;;;18.40;;
21825;SDS011;11075;47.944;11.776;2022-12-16T09:25:47;37.57;;;19.47;;
21825;SDS011;11075;47.944;11.776;2022-12-16T09:28:32;39.37;;;19.03;;
21825;SDS011;11075;47.944;11.776;2022-12-16T09:31:18;34.77;;;17.07;;
21825;SDS011;11075;47.944;11.776;2022-12-16T09:34:04;41.23;;;19.53;;
21825;SDS011;11075;47.944;11.776;2022-12-16T09:36:50;40.13;;;19.50;;
21825;SDS011;11075;47.944;11.776;2022-12-16T09:39:36;39.23;;;19.73;;
21825;SDS011;11075;47.944;11.776;2022-12-16T09:45:31;42.00;;;19.90;;
21825;SDS011;11075;47.944;11.776;2022-12-16T09:51:52;41.30;;;20.63;;
21825;SDS011;11075;47.944;11.776;2022-12-16T09:54:44;41.77;;;20.90;;
21825;SDS011;11075;47.944;11.776;2022-12-16T09:57:32;43.90;;;21.00;;
21825;SDS011;11075;47.944;11.776;2022-12-16T10:00:21;46.60;;;22.03;;
21825;SDS011;11075;47.944;11.776;2022-12-16T10:03:42;43.23;;;21.33;;
21825;SDS011;11075;47.944;11.776;2022-12-16T10:06:27;47.13;;;22.17;;
21825;SDS011;11075;47.944;11.776;2022-12-16T10:09:23;54.63;;;24.30;;
21825;SDS011;11075;47.944;11.776;2022-12-16T10:19:27;46.57;;;22.33;;
21825;SDS011;11075;47.944;11.776;2022-12-16T10:25:51;47.30;;;23.77;;
21825;SDS011;11075;47.944;11.776;2022-12-16T10:28:44;49.70;;;25.20;;
21825;SDS011;11075;47.944;11.776;2022-12-16T10:31:32;48.33;;;22.67;;
21825;SDS011;11075;47.944;11.776;2022-12-16T10:34:29;47.93;;;23.07;;
21825;SDS011;11075;47.944;11.776;2022-12-16T10:37:23;47.17;;;22.80;;
21825;SDS011;11075;47.944;11.776;2022-12-16T10:40:14;52.77;;;23.27;;
21825;SDS011;11075;47.944;11.776;2022-12-16T10:43:21;50.63;;;22.77;;
21825;SDS011;11075;47.944;11.776;2022-12-16T10:46:28;50.63;;;23.97;;
21825;SDS011;11075;47.944;11.776;2022-12-16T10:49:20;45.80;;;22.13;;
21825;SDS011;11075;47.944;11.776;2022-12-16T10:52:08;43.13;;;21.70;;
21825;SDS011;11075;47.944;11.776;2022-12-16T11:01:23;41.03;;;20.13;;
21825;SDS011;11075;47.944;11.776;2022-12-16T11:07:35;42.47;;;20.03;;
21825;SDS011;11075;47.944;11.776;2022-12-16T11:10:43;39.90;;;20.07;;
21825;SDS011;11075;47.944;11.776;2022-12-16T11:13:30;39.97;;;20.27;;
21825;SDS011;11075;47.944;11.776;2022-12-16T11:16:25;42.17;;;20.80;;
21825;SDS011;11075;47.944;11.776;2022-12-16T11:19:20;36.13;;;17.93;;
21825;SDS011;11075;47.944;11.776;2022-12-16T11:22:12;41.33;;;21.33;;
21825;SDS011;11075;47.944;11.776;2022-12-16T11:25:16;35.97;;;18.03;;
21825;SDS011;11075;47.944;11.776;2022-12-16T11:28:09;37.20;;;18.73;;
21825;SDS011;11075;47.944;11.776;2022-12-16T11:30:58;38.13;;;18.87;;
21825;SDS011;11075;47.944;11.776;2022-12-16T11:33:48;36.33;;;18.23;;
21825;SDS011;11075;47.944;11.776;2022-12-16T11:36:35;38.57;;;19.70;;
21825;SDS011;11075;47.944;11.776;2022-12-16T11:39:23;39.23;;;19.73;;
21825;SDS011;11075;47.944;11.776;2022-12-16T11:42:23;37.87;;;18.00;;
21825;SDS011;11075;47.944;11.776;2022-12-16T11:45:13;37.43;;;18.83;;
21825;SDS011;11075;47.944;11.776;2022-12-16T11:48:02;38.40;;;18.13;;
21825;SDS011;11075;47.944;11.776;2022-12-16T11:50:52;36.40;;;18.60;;
21825;SDS011;11075;47.944;11.776;2022-12-16T11:53:45;38.00;;;18.53;;
21825;SDS011;11075;47.944;11.776;2022-12-16T11:56:37;36.63;;;18.30;;
21825;SDS011;11075;47.944;11.776;2022-12-16T12:02:20;37.43;;;18.93;;
21825;SDS011;11075;47.944;11.776;2022-12-16T12:05:13;35.70;;;18.60;;
21825;SDS011;11075;47.944;11.776;2022-12-16T12:13:59;36.80;;;17.80;;
21825;SDS011;11075;47.944;11.776;2022-12-16T12:20:00;35.20;;;18.93;;
21825;SDS011;11075;47.944;11.776;2022-12-16T12:22:49;38.93;;;19.43;;
21825;SDS011;11075;47.944;11.776;2022-12-16T12:25:44;36.50;;;18.63;;
21825;SDS011;11075;47.944;11.776;2022-12-16T12:34:58;33.57;;;17.60;;
21825;SDS011;11075;47.944;11.776;2022-12-16T12:42:11;33.20;;;18.17;;
21825;SDS011;11075;47.944;11.776;2022-12-16T12:47:25;32.60;;;17.77;;
21825;SDS011;11075;47.944;11.776;2022-12-16T12:50:16;40.17;;;19.47;;
21825;SDS011;11075;47.944;11.776;2022-12-16T12:56:20;34.77;;;18.53;;
21825;SDS011;11075;47.944;11.776;2022-12-16T12:59:11;39.63;;;18.53;;
21825;SDS011;11075;47.944;11.776;2022-12-16T13:02:03;36.33;;;18.37;;
21825;SDS011;11075;47.944;11.776;2022-12-16T13:04:53;40.57;;;18.60;;
21825;SDS011;11075;47.944;11.776;2022-12-16T13:07:43;37.67;;;19.40;;
21825;SDS011;11075;47.944;11.776;2022-12-16T13:10:34;36.83;;;18.07;;
21825;SDS011;11075;47.944;11.776;2022-12-16T13:16:11;35.40;;;17.47;;
21825;SDS011;11075;47.944;11.776;2022-12-16T13:22:37;35.40;;;17.77;;
21825;SDS011;11075;47.944;11.776;2022-12-16T13:28:20;36.10;;;17.70;;
21825;SDS011;11075;47.944;11.776;2022-12-16T13:31:07;42.00;;;19.27;;
21825;SDS011;11075;47.944;11.776;2022-12-16T13:33:53;38.93;;;19.23;;
21825;SDS011;11075;47.944;11.776;2022-12-16T13:36:51;36.13;;;18.73;;
21825;SDS011;11075;47.944;11.776;2022-12-16T13:39:39;43.20;;;20.73;;
21825;SDS011;11075;47.944;11.776;2022-12-16T13:42:31;40.33;;;18.53;;
21825;SDS011;11075;47.944;11.776;2022-12-16T13:45:27;40.90;;;19.07;;
21825;SDS011;11075;47.944;11.776;2022-12-16T13:48:26;43.47;;;19.13;;
21825;SDS011;11075;47.944;11.776;2022-12-16T13:54:33;46.50;;;21.23;;
21825;SDS011;11075;47.944;11.776;2022-12-16T13:57:23;40.07;;;19.57;;
21825;SDS011;11075;47.944;11.776;2022-12-16T14:00:15;42.67;;;19.23;;
21825;SDS011;11075;47.944;11.776;2022-12-16T14:03:07;40.67;;;19.20;;
21825;SDS011;11075;47.944;11.776;2022-12-16T14:05:57;41.10;;;20.37;;
21825;SDS011;11075;47.944;11.776;2022-12-16T14:08:44;43.57;;;20.90;;
21825;SDS011;11075;47.944;11.776;2022-12-16T14:11:35;42.17;;;21.40;;
21825;SDS011;11075;47.944;11.776;2022-12-16T14:14:44;41.20;;;18.73;;
21825;SDS011;11075;47.944;11.776;2022-12-16T14:17:37;40.37;;;19.50;;
21825;SDS011;11075;47.944;11.776;2022-12-16T14:20:32;41.43;;;20.13;;
21825;SDS011;11075;47.944;11.776;2022-12-16T14:23:59;41.73;;;20.13;;
21825;SDS011;11075;47.944;11.776;2022-12-16T14:26:40;44.60;;;21.37;;
21825;SDS011;11075;47.944;11.776;2022-12-16T14:29:28;39.27;;;19.57;;
21825;SDS011;11075;47.944;11.776;2022-12-16T14:32:32;39.20;;;20.30;;
21825;SDS011;11075;47.944;11.776;2022-12-16T14:35:23;41.47;;;20.77;;
21825;SDS011;11075;47.944;11.776;2022-12-16T14:41:14;46.07;;;23.00;;
21825;SDS011;11075;47.944;11.776;2022-12-16T14:44:04;44.30;;;21.77;;
21825;SDS011;11075;47.944;11.776;2022-12-16T14:47:00;45.93;;;21.60;;
21825;SDS011;11075;47.944;11.776;2022-12-16T14:49:50;47.73;;;21.87;;
21825;SDS011;11075;47.944;11.776;2022-12-16T14:52:38;41.93;;;20.97;;
21825;SDS011;11075;47.944;11.776;2022-12-16T14:55:28;43.00;;;20.47;;
21825;SDS011;11075;47.944;11.776;2022-12-16T14:58:21;44.47;;;21.67;;
21825;SDS011;11075;47.944;11.776;2022-12-16T15:01:17;38.93;;;19.07;;
21825;SDS011;11075;47.944;11.776;2022-12-16T15:04:13;41.70;;;19.90;;
21825;SDS011;11075;47.944;11.776;2022-12-16T15:07:07;39.77;;;20.77;;
21825;SDS011;11075;47.944;11.776;2022-12-16T15:09:58;39.80;;;19.93;;
21825;SDS011;11075;47.944;11.776;2022-12-16T15:12:45;40.07;;;19.00;;
21825;SDS011;11075;47.944;11.776;2022-12-16T15:18:18;42.93;;;19.97;;
21825;SDS011;11075;47.944;11.776;2022-12-16T15:21:09;44.50;;;21.63;;
21825;SDS011;11075;47.944;11.776;2022-12-16T15:23:54;36.40;;;19.33;;
21825;SDS011;11075;47.944;11.776;2022-12-16T15:26:40;41.07;;;20.03;;
21825;SDS011;11075;47.944;11.776;2022-12-16T15:29:37;42.27;;;18.93;;
21825;SDS011;11075;47.944;11.776;2022-12-16T15:35:10;40.00;;;19.37;;
21825;SDS011;11075;47.944;11.776;2022-12-16T15:38:11;40.37;;;19.60;;
21825;SDS011;11075;47.944;11.776;2022-12-16T15:41:01;45.27;;;19.23;;
21825;SDS011;11075;47.944;11.776;2022-12-16T15:44:16;38.60;;;18.17;;
21825;SDS011;11075;47.944;11.776;2022-12-16T15:47:03;39.53;;;19.30;;
21825;SDS011;11075;47.944;11.776;2022-12-16T15:49:50;35.93;;;18.97;;
21825;SDS011;11075;47.944;11.776;2022-12-16T15:52:40;41.67;;;18.60;;
21825;SDS011;11075;47.944;11.776;2022-12-16T15:55:34;38.40;;;18.47;;
21825;SDS011;11075;47.944;11.776;2022-12-16T15:58:31;36.77;;;18.97;;
21825;SDS011;11075;47.944;11.776;2022-12-16T16:01:23;39.50;;;19.80;;
21825;SDS011;11075;47.944;11.776;2022-12-16T16:04:26;42.73;;;20.30;;
21825;SDS011;11075;47.944;11.776;2022-12-16T16:07:20;41.83;;;19.00;;
21825;SDS011;11075;47.944;11.776;2022-12-16T16:10:19;41.17;;;18.77;;
21825;SDS011;11075;47.944;11.776;2022-12-16T16:13:07;40.63;;;19.57;;
21825;SDS011;11075;47.944;11.776;2022-12-16T16:15:54;41.67;;;20.27;;
21825;SDS011;11075;47.944;11.776;2022-12-16T16:18:40;40.50;;;20.37;;
21825;SDS011;11075;47.944;11.776;2022-12-16T16:21:27;39.90;;;19.67;;
21825;SDS011;11075;47.944;11.776;2022-12-16T16:24:14;41.00;;;19.27;;
21825;SDS011;11075;47.944;11.776;2022-12-16T16:27:01;41.80;;;19.93;;
21825;SDS011;11075;47.944;11.776;2022-12-16T16:29:50;39.93;;;18.70;;
21825;SDS011;11075;47.944;11.776;2022-12-16T16:32:36;37.67;;;17.53;;
21825;SDS011;11075;47.944;11.776;2022-12-16T16:35:21;38.37;;;18.80;;
21825;SDS011;11075;47.944;11.776;2022-12-16T16:38:08;38.87;;;18.90;;
21825;SDS011;11075;47.944;11.776;2022-12-16T16:40:55;42.87;;;18.80;;
21825;SDS011;11075;47.944;11.776;2022-12-16T16:43:41;37.80;;;19.30;;
21825;SDS011;11075;47.944;11.776;2022-12-16T16:49:20;40.03;;;19.60;;
21825;SDS011;11075;47.944;11.776;2022-12-16T16:52:11;36.33;;;18.47;;
21825;SDS011;11075;47.944;11.776;2022-12-16T16:54:59;42.07;;;19.37;;
21825;SDS011;11075;47.944;11.776;2022-12-16T16:57:44;40.37;;;18.93;;
21825;SDS011;11075;47.944;11.776;2022-12-16T17:00:31;35.17;;;17.17;;
21825;SDS011;11075;47.944;11.776;2022-12-16T17:03:17;38.53;;;18.70;;
21825;SDS011;11075;47.944;11.776;2022-12-16T17:06:03;39.20;;;18.17;;
21825;SDS011;11075;47.944;11.776;2022-12-16T17:08:49;40.77;;;18.60;;
21825;SDS011;11075;47.944;11.776;2022-12-16T17:11:34;36.60;;;18.00;;
21825;SDS011;11075;47.944;11.776;2022-12-16T17:14:20;35.33;;;17.77;;
21825;SDS011;11075;47.944;11.776;2022-12-16T17:17:06;35.87;;;18.20;;
21825;SDS011;11075;47.944;11.776;2022-12-16T17:19:51;38.27;;;19.13;;
21825;SDS011;11075;47.944;11.776;2022-12-16T17:22:40;40.97;;;19.23;;
21825;SDS011;11075;47.944;11.776;2022-12-16T17:25:25;35.00;;;17.57;;
21825;SDS011;11075;47.944;11.776;2022-12-16T17:28:10;35.87;;;17.73;;
21825;SDS011;11075;47.944;11.776;2022-12-16T17:30:56;35.37;;;17.00;;